createdAt,value
2023-11-24T00:00:47.325Z,4.17
2023-11-24T00:03:16.296Z,5.80
2023-11-24T00:05:47.355Z,5.30
2023-11-24T00:08:15.651Z,5.90
2023-11-24T00:10:45.050Z,5.10
2023-11-24T00:13:13.307Z,4.70
2023-11-24T00:15:43.941Z,4.73
2023-11-24T00:18:13.180Z,5.13
2023-11-24T00:20:41.462Z,5.30
2023-11-24T00:23:11.126Z,5.70
2023-11-24T00:25:39.419Z,4.83
2023-11-24T00:28:07.742Z,4.47
2023-11-24T00:30:36.252Z,6.03
2023-11-24T00:33:04.610Z,5.27
2023-11-24T00:35:34.043Z,5.93
2023-11-24T00:38:02.292Z,4.47
2023-11-24T00:40:31.971Z,5.63
2023-11-24T00:43:01.772Z,4.80
2023-11-24T00:45:30.156Z,4.70
2023-11-24T00:47:58.405Z,5.17
2023-11-24T00:50:26.809Z,4.87
2023-11-24T00:52:55.124Z,4.80
2023-11-24T00:55:24.289Z,4.53
2023-11-24T00:57:54.133Z,5.30
2023-11-24T01:00:24.252Z,5.10
2023-11-24T01:02:52.595Z,4.63
2023-11-24T01:05:21.728Z,4.73
2023-11-24T01:07:50.190Z,4.30
2023-11-24T01:10:18.641Z,5.43
2023-11-24T01:12:49.964Z,4.30
2023-11-24T01:15:20.054Z,5.00
2023-11-24T01:17:48.558Z,4.80
2023-11-24T01:20:17.553Z,4.37
2023-11-24T01:22:46.804Z,4.10
2023-11-24T01:25:15.150Z,3.87
2023-11-24T01:27:43.475Z,4.50
2023-11-24T01:30:12.846Z,4.43
2023-11-24T01:32:42.472Z,3.77
2023-11-24T01:35:11.631Z,4.10
2023-11-24T01:37:41.238Z,4.03
2023-11-24T01:40:11.311Z,4.20
2023-11-24T01:42:39.839Z,4.10
2023-11-24T01:45:10.353Z,3.90
2023-11-24T01:47:39.329Z,4.03
2023-11-24T01:50:10.293Z,4.80
2023-11-24T01:52:38.586Z,4.07
2023-11-24T01:55:07.910Z,3.60
2023-11-24T01:57:37.447Z,3.90
2023-11-24T02:00:07.018Z,4.83
2023-11-24T02:02:36.300Z,3.57
2023-11-24T02:05:04.788Z,3.90
2023-11-24T02:07:34.432Z,4.40
2023-11-24T02:10:03.069Z,4.13
2023-11-24T02:12:31.353Z,4.63
2023-11-24T02:14:59.629Z,4.23
2023-11-24T02:17:27.869Z,4.60
2023-11-24T02:19:58.266Z,4.47
2023-11-24T02:22:26.630Z,4.40
2023-11-24T02:24:56.326Z,4.77
2023-11-24T02:27:25.703Z,4.40
2023-11-24T02:29:54.447Z,4.20
2023-11-24T02:32:22.694Z,3.93
2023-11-24T02:34:50.924Z,4.10
2023-11-24T02:37:19.238Z,4.13
2023-11-24T02:39:48.880Z,3.80
2023-11-24T02:42:18.700Z,4.20
2023-11-24T02:44:47.003Z,4.13
2023-11-24T02:47:15.252Z,4.23
2023-11-24T02:49:43.648Z,4.73
2023-11-24T02:52:11.843Z,4.90
2023-11-24T02:54:40.126Z,4.57
2023-11-24T02:57:08.629Z,4.60
2023-11-24T02:59:38.257Z,4.37
2023-11-24T03:02:07.166Z,5.47
2023-11-24T03:04:35.470Z,4.70
2023-11-24T03:07:05.335Z,4.40
2023-11-24T03:09:33.754Z,5.20
2023-11-24T03:12:03.421Z,5.60
2023-11-24T03:14:32.029Z,4.67
2023-11-24T03:17:02.486Z,4.13
2023-11-24T03:19:30.852Z,5.10
2023-11-24T03:21:59.126Z,5.07
2023-11-24T03:24:27.532Z,4.17
2023-11-24T03:26:55.797Z,5.00
2023-11-24T03:29:24.342Z,4.40
2023-11-24T03:31:52.629Z,4.20
2023-11-24T03:34:22.414Z,4.40
2023-11-24T03:36:50.878Z,5.10
2023-11-24T03:39:22.212Z,3.80
2023-11-24T03:41:50.477Z,4.73
2023-11-24T03:44:18.898Z,4.23
2023-11-24T03:46:47.247Z,4.40
2023-11-24T03:49:15.571Z,4.33
2023-11-24T03:51:45.222Z,5.00
2023-11-24T03:54:13.813Z,4.67
2023-11-24T03:56:42.135Z,4.63
2023-11-24T03:59:10.521Z,4.10
2023-11-24T04:01:38.921Z,4.20
2023-11-24T04:04:07.977Z,4.60
2023-11-24T04:06:36.366Z,4.30
2023-11-24T04:09:06.776Z,5.07
2023-11-24T04:11:35.081Z,4.70
2023-11-24T04:14:03.545Z,4.90
2023-11-24T04:16:32.015Z,4.00
2023-11-24T04:19:00.345Z,3.47
2023-11-24T04:21:28.664Z,4.00
2023-11-24T04:23:57.476Z,3.90
2023-11-24T04:26:27.163Z,4.03
2023-11-24T04:28:58.346Z,3.37
2023-11-24T04:31:26.605Z,3.83
2023-11-24T04:33:54.843Z,4.00
2023-11-24T04:36:23.385Z,3.53
2023-11-24T04:38:51.690Z,3.03
2023-11-24T04:41:19.876Z,4.00
2023-11-24T04:43:49.412Z,3.60
2023-11-24T04:46:17.671Z,3.27
2023-11-24T04:48:46.241Z,3.30
2023-11-24T04:51:14.519Z,3.00
2023-11-24T04:53:42.792Z,3.40
2023-11-24T04:56:11.458Z,2.93
2023-11-24T04:58:39.755Z,3.80
2023-11-24T05:01:09.620Z,2.67
2023-11-24T05:03:37.968Z,2.70
2023-11-24T05:06:06.900Z,2.63
2023-11-24T05:08:35.086Z,2.77
2023-11-24T05:11:03.305Z,2.37
2023-11-24T05:13:31.539Z,1.90
2023-11-24T05:16:00.421Z,2.77
2023-11-24T05:18:30.060Z,2.30
2023-11-24T05:20:58.330Z,2.73
2023-11-24T05:23:26.556Z,2.23
2023-11-24T05:25:55.010Z,2.07
2023-11-24T05:28:23.825Z,2.10
2023-11-24T05:30:52.504Z,2.40
2023-11-24T05:33:20.861Z,2.13
2023-11-24T05:35:50.440Z,2.73
2023-11-24T05:38:18.674Z,2.80
2023-11-24T05:40:47.393Z,2.00
2023-11-24T05:43:15.661Z,2.70
2023-11-24T05:45:44.206Z,2.57
2023-11-24T05:48:12.559Z,2.60
2023-11-24T05:50:40.778Z,2.10
2023-11-24T05:53:10.340Z,2.23
2023-11-24T05:55:38.598Z,2.57
2023-11-24T05:58:07.271Z,2.33
2023-11-24T06:00:35.710Z,2.30
2023-11-24T06:03:03.962Z,2.47
2023-11-24T06:05:32.293Z,2.63
2023-11-24T06:08:03.100Z,1.80
2023-11-24T06:10:33.187Z,2.10
2023-11-24T06:13:01.798Z,2.03
2023-11-24T06:15:30.208Z,1.90
2023-11-24T06:17:58.486Z,2.60
2023-11-24T06:20:26.749Z,2.43
2023-11-24T06:22:55.709Z,2.37
2023-11-24T06:25:23.917Z,2.10
2023-11-24T06:27:53.586Z,2.00
2023-11-24T06:30:21.988Z,1.90
2023-11-24T06:32:50.275Z,1.80
2023-11-24T06:35:18.509Z,1.80
2023-11-24T06:37:46.754Z,1.57
2023-11-24T06:40:15.509Z,1.40
2023-11-24T06:42:43.963Z,1.97
2023-11-24T06:45:14.813Z,2.20
2023-11-24T06:47:43.526Z,2.20
2023-11-24T06:50:13.486Z,1.80
2023-11-24T06:52:42.114Z,2.20
2023-11-24T06:55:11.801Z,2.60
2023-11-24T06:57:40.777Z,3.50
2023-11-24T07:00:10.208Z,2.97
2023-11-24T07:02:40.198Z,2.87
2023-11-24T07:05:10.182Z,2.50
2023-11-24T07:07:38.967Z,2.37
2023-11-24T07:10:08.644Z,2.40
2023-11-24T07:12:36.978Z,2.13
2023-11-24T07:15:06.232Z,3.50
2023-11-24T07:17:34.787Z,3.07
2023-11-24T07:20:05.215Z,2.93
2023-11-24T07:22:34.504Z,2.60
2023-11-24T07:25:02.813Z,3.00
2023-11-24T07:27:32.412Z,2.27
2023-11-24T07:30:00.769Z,2.30
2023-11-24T07:32:30.615Z,2.47
2023-11-24T07:34:58.903Z,2.20
2023-11-24T07:37:28.850Z,2.70
2023-11-24T07:39:57.161Z,3.00
2023-11-24T07:42:25.462Z,2.40
2023-11-24T07:44:53.727Z,2.43
2023-11-24T07:47:21.927Z,2.60
2023-11-24T07:49:50.160Z,2.23
2023-11-24T07:52:18.402Z,2.53
2023-11-24T07:54:48.030Z,2.80
2023-11-24T07:57:16.287Z,3.17
2023-11-24T07:59:44.754Z,3.17
2023-11-24T08:02:13.075Z,4.30
2023-11-24T08:04:41.631Z,3.03
2023-11-24T08:07:10.535Z,3.30
2023-11-24T08:09:38.936Z,3.93
2023-11-24T08:12:12.337Z,2.93
2023-11-24T08:14:42.405Z,3.67
2023-11-24T08:17:10.855Z,3.50
2023-11-24T08:19:39.096Z,3.50
2023-11-24T08:22:07.403Z,3.50
2023-11-24T08:24:35.896Z,3.90
2023-11-24T08:27:05.775Z,3.60
2023-11-24T08:29:35.452Z,3.57
2023-11-24T08:32:03.717Z,4.17
2023-11-24T08:34:32.171Z,3.37
2023-11-24T08:37:03.306Z,3.87
2023-11-24T08:39:31.763Z,4.57
2023-11-24T08:42:00.043Z,3.63
2023-11-24T08:44:28.676Z,4.80
2023-11-24T08:46:58.360Z,4.07
2023-11-24T08:49:26.660Z,3.60
2023-11-24T08:51:55.109Z,4.10
2023-11-24T08:54:23.843Z,3.63
2023-11-24T08:56:52.207Z,4.40
2023-11-24T08:59:20.500Z,3.63
2023-11-24T09:01:50.584Z,2.93
2023-11-24T09:04:21.673Z,3.90
2023-11-24T09:06:51.496Z,3.70
2023-11-24T09:09:19.963Z,4.97
2023-11-24T09:11:49.086Z,3.17
2023-11-24T09:14:17.431Z,4.40
2023-11-24T09:16:45.730Z,4.50
2023-11-24T09:19:14.437Z,4.30
2023-11-24T09:21:44.099Z,3.53
2023-11-24T09:24:16.050Z,3.93
2023-11-24T09:26:45.230Z,4.63
2023-11-24T09:29:13.982Z,3.60
2023-11-24T09:31:42.669Z,3.67
2023-11-24T09:34:11.169Z,3.77
2023-11-24T09:36:42.811Z,4.13
2023-11-24T09:39:18.233Z,4.60
2023-11-24T09:41:49.565Z,4.93
2023-11-24T09:44:17.913Z,4.90
2023-11-24T09:46:51.658Z,4.67
2023-11-24T09:49:22.312Z,4.80
2023-11-24T09:51:50.637Z,6.33
2023-11-24T09:54:20.264Z,4.40
2023-11-24T09:56:48.547Z,4.67
2023-11-24T09:59:16.793Z,5.57
2023-11-24T10:01:45.086Z,4.40
2023-11-24T10:04:14.062Z,5.50
2023-11-24T10:06:44.876Z,4.70
2023-11-24T10:09:15.811Z,4.43
2023-11-24T10:11:45.467Z,4.77
2023-11-24T10:14:13.879Z,3.90
2023-11-24T10:16:42.907Z,4.20
2023-11-24T10:19:18.476Z,3.83
2023-11-24T10:21:49.430Z,4.00
2023-11-24T10:24:17.905Z,4.00
2023-11-24T10:26:47.483Z,3.90
2023-11-24T10:29:16.482Z,3.53
2023-11-24T10:31:46.013Z,3.43
2023-11-24T10:34:14.437Z,6.07
2023-11-24T10:36:43.648Z,4.20
2023-11-24T10:39:13.372Z,3.73
2023-11-24T10:41:43.895Z,3.47
2023-11-24T10:44:14.319Z,3.70
2023-11-24T10:46:46.445Z,3.70
2023-11-24T10:49:19.537Z,4.00
2023-11-24T10:51:54.468Z,3.67
2023-11-24T10:54:26.882Z,4.37
2023-11-24T10:56:58.824Z,4.27
2023-11-24T10:59:30.152Z,4.37
2023-11-24T11:01:59.366Z,4.57
2023-11-24T11:04:28.911Z,3.73
2023-11-24T11:07:02.897Z,3.73
2023-11-24T11:09:36.800Z,5.30
2023-11-24T11:12:32.587Z,4.17
2023-11-24T11:15:02.600Z,3.87
2023-11-24T11:17:30.914Z,4.40
2023-11-24T11:19:59.910Z,3.33
2023-11-24T11:22:32.623Z,3.27
2023-11-24T11:25:41.680Z,3.30
2023-11-24T11:28:35.838Z,3.47
2023-11-24T11:31:35.442Z,3.40
2023-11-24T11:34:17.371Z,3.50
2023-11-24T11:37:08.021Z,3.70
2023-11-24T11:39:39.092Z,3.23
2023-11-24T11:42:10.366Z,3.80
2023-11-24T11:44:47.266Z,3.70
2023-11-24T11:47:24.308Z,3.60
2023-11-24T11:49:55.804Z,4.93
2023-11-24T11:52:27.421Z,8.13
2023-11-24T11:54:57.442Z,3.57
2023-11-24T11:57:28.316Z,2.83
2023-11-24T11:59:57.040Z,3.47
2023-11-24T12:02:25.761Z,3.00
2023-11-24T12:04:55.519Z,2.87
2023-11-24T12:07:27.542Z,3.53
2023-11-24T12:09:56.160Z,4.30
2023-11-24T12:12:25.293Z,3.57
2023-11-24T12:14:55.901Z,3.47
2023-11-24T12:17:25.163Z,2.87
2023-11-24T12:19:55.239Z,3.07
2023-11-24T12:22:24.704Z,2.60
2023-11-24T12:24:54.196Z,3.07
2023-11-24T12:27:23.253Z,2.80
2023-11-24T12:29:52.463Z,2.70
2023-11-24T12:32:25.066Z,4.73
2023-11-24T12:34:53.434Z,2.43
2023-11-24T12:37:24.388Z,2.43
2023-11-24T12:39:52.902Z,2.90
2023-11-24T12:42:23.627Z,2.27
2023-11-24T12:44:52.865Z,3.10
2023-11-24T12:47:40.098Z,2.83
2023-11-24T12:50:12.501Z,3.40
2023-11-24T12:52:44.800Z,2.90
2023-11-24T12:55:13.687Z,2.60
2023-11-24T12:57:43.603Z,3.70
2023-11-24T13:00:15.430Z,3.47
2023-11-24T13:02:44.763Z,3.30
2023-11-24T13:05:14.739Z,2.90
2023-11-24T13:07:45.028Z,3.37
2023-11-24T13:10:13.658Z,3.10
2023-11-24T13:12:43.203Z,3.67
2023-11-24T13:15:12.167Z,3.23
2023-11-24T13:17:40.989Z,3.20
2023-11-24T13:20:12.091Z,4.20
2023-11-24T13:22:40.950Z,3.20
2023-11-24T13:25:10.879Z,4.30
2023-11-24T13:27:39.703Z,3.30
2023-11-24T13:30:10.798Z,3.70
2023-11-24T13:32:40.295Z,3.20
2023-11-24T13:35:11.735Z,3.40
2023-11-24T13:37:40.572Z,4.47
2023-11-24T13:40:13.213Z,3.87
2023-11-24T13:42:42.681Z,3.80
2023-11-24T13:45:13.608Z,3.90
2023-11-24T13:47:42.913Z,3.90
2023-11-24T13:50:12.407Z,4.40
2023-11-24T13:52:42.841Z,3.17
2023-11-24T13:55:16.199Z,3.37
2023-11-24T13:57:45.798Z,2.87
2023-11-24T14:00:17.981Z,3.60
2023-11-24T14:02:46.557Z,3.10
2023-11-24T14:05:15.147Z,3.70
2023-11-24T14:07:45.876Z,3.60
2023-11-24T14:10:19.202Z,3.87
2023-11-24T14:12:49.500Z,3.90
2023-11-24T14:15:18.175Z,3.67
2023-11-24T14:17:46.522Z,3.23
2023-11-24T14:20:14.900Z,3.33
2023-11-24T14:22:43.255Z,2.63
2023-11-24T14:25:12.414Z,2.63
2023-11-24T14:27:42.281Z,3.33
2023-11-24T14:30:10.719Z,3.53
2023-11-24T14:32:39.029Z,3.97
2023-11-24T14:35:09.701Z,2.47
2023-11-24T14:37:41.559Z,2.27
2023-11-24T14:40:20.474Z,2.27
2023-11-24T14:42:51.855Z,2.23
2023-11-24T14:45:21.872Z,2.03
2023-11-24T14:47:51.356Z,1.90
2023-11-24T14:50:26.440Z,1.80
2023-11-24T14:52:55.582Z,1.83
2023-11-24T14:55:24.134Z,1.70
2023-11-24T14:57:53.993Z,1.70
2023-11-24T15:00:30.653Z,2.13
2023-11-24T15:03:02.022Z,2.10
2023-11-24T15:05:31.857Z,2.40
2023-11-24T15:08:00.137Z,1.57
2023-11-24T15:10:28.525Z,1.97
2023-11-24T15:12:58.223Z,1.80
2023-11-24T15:15:27.787Z,2.07
2023-11-24T15:17:56.215Z,2.00
2023-11-24T15:20:33.435Z,2.13
2023-11-24T15:23:04.693Z,2.23
2023-11-24T15:25:38.747Z,2.03
2023-11-24T15:28:13.584Z,2.67
2023-11-24T15:30:42.092Z,2.33
2023-11-24T15:33:10.448Z,2.77
2023-11-24T15:35:40.446Z,3.00
2023-11-24T15:38:09.292Z,2.87
2023-11-24T15:40:37.589Z,2.67
2023-11-24T15:43:06.140Z,3.20
2023-11-24T15:45:36.053Z,2.50
2023-11-24T15:48:08.999Z,2.63
2023-11-24T15:50:39.686Z,2.60
2023-11-24T15:53:08.491Z,2.53
2023-11-24T15:55:40.608Z,2.67
2023-11-24T15:58:12.908Z,2.30
2023-11-24T16:00:46.408Z,2.57
2023-11-24T16:03:16.476Z,3.00
2023-11-24T16:05:50.502Z,2.70
2023-11-24T16:08:19.129Z,2.30
2023-11-24T16:10:56.745Z,2.90
2023-11-24T16:13:25.478Z,2.37
2023-11-24T16:15:55.234Z,2.63
2023-11-24T16:18:34.737Z,3.87
2023-11-24T16:21:04.089Z,4.40
2023-11-24T16:23:32.474Z,4.20
2023-11-24T16:26:00.790Z,3.50
2023-11-24T16:28:29.354Z,5.20
2023-11-24T16:30:59.067Z,6.00
2023-11-24T16:33:29.446Z,6.10
2023-11-24T16:35:59.422Z,6.07
2023-11-24T16:38:27.697Z,4.00
2023-11-24T16:40:56.583Z,4.50
2023-11-24T16:43:24.967Z,4.40
2023-11-24T16:45:53.308Z,4.90
2023-11-24T16:48:22.955Z,3.90
2023-11-24T16:50:51.555Z,3.27
2023-11-24T16:53:19.811Z,2.93
2023-11-24T16:55:48.301Z,3.40
2023-11-24T16:58:16.719Z,3.63
2023-11-24T17:00:46.426Z,2.90
2023-11-24T17:03:14.991Z,3.20
2023-11-24T17:05:44.796Z,4.03
2023-11-24T17:08:13.789Z,3.80
2023-11-24T17:10:42.652Z,4.03
2023-11-24T17:13:11.700Z,4.40
2023-11-24T17:15:40.100Z,3.67
2023-11-24T17:18:11.364Z,4.20
2023-11-24T17:20:40.636Z,4.20
2023-11-24T17:23:16.780Z,4.03
2023-11-24T17:25:46.505Z,4.93
2023-11-24T17:28:14.918Z,3.97
2023-11-24T17:30:43.222Z,4.90
2023-11-24T17:33:11.651Z,4.60
2023-11-24T17:35:40.021Z,3.57
2023-11-24T17:38:12.802Z,3.30
2023-11-24T17:40:42.516Z,4.13
2023-11-24T17:43:11.199Z,4.07
2023-11-24T17:45:40.425Z,3.80
2023-11-24T17:48:09.880Z,3.53
2023-11-24T17:50:38.549Z,3.77
2023-11-24T17:53:07.887Z,3.80
2023-11-24T17:55:37.487Z,4.70
2023-11-24T17:58:05.784Z,4.27
2023-11-24T18:00:34.121Z,4.27
2023-11-24T18:03:02.607Z,3.47
2023-11-24T18:05:31.241Z,4.60
2023-11-24T18:08:03.539Z,3.87
2023-11-24T18:10:31.952Z,4.10
2023-11-24T18:13:01.773Z,4.50
2023-11-24T18:15:30.145Z,6.30
2023-11-24T18:17:58.543Z,8.40
2023-11-24T18:20:26.859Z,8.50
2023-11-24T18:22:55.116Z,6.90
2023-11-24T18:25:23.520Z,7.03
2023-11-24T18:27:52.244Z,5.80
2023-11-24T18:30:23.269Z,5.20
2023-11-24T18:32:51.692Z,6.53
2023-11-24T18:35:22.508Z,5.00
2023-11-24T18:37:52.316Z,5.43
2023-11-24T18:40:26.676Z,4.20
2023-11-24T18:42:55.024Z,4.13
2023-11-24T18:45:24.841Z,5.23
2023-11-24T18:47:53.323Z,4.73
2023-11-24T18:50:21.757Z,4.50
2023-11-24T18:52:50.010Z,4.80
2023-11-24T18:55:18.916Z,4.00
2023-11-24T18:57:49.100Z,3.50
2023-11-24T19:00:20.036Z,3.90
2023-11-24T19:02:50.918Z,4.00
2023-11-24T19:05:20.159Z,3.27
2023-11-24T19:07:48.843Z,3.87
2023-11-24T19:10:19.628Z,4.80
2023-11-24T19:12:52.225Z,3.57
2023-11-24T19:15:21.174Z,5.10
2023-11-24T19:17:50.910Z,4.00
2023-11-24T19:20:20.212Z,3.73
2023-11-24T19:22:48.517Z,3.33
2023-11-24T19:25:16.933Z,4.13
2023-11-24T19:27:45.190Z,3.83
2023-11-24T19:30:14.100Z,3.93
2023-11-24T19:32:42.398Z,3.20
2023-11-24T19:35:12.052Z,3.67
2023-11-24T19:37:40.696Z,3.63
2023-11-24T19:40:10.803Z,3.53
2023-11-24T19:42:39.101Z,3.63
2023-11-24T19:45:10.290Z,3.83
2023-11-24T19:47:38.568Z,3.90
2023-11-24T19:50:08.080Z,4.00
2023-11-24T19:52:38.635Z,5.70
2023-11-24T19:55:07.686Z,4.73
2023-11-24T19:57:36.127Z,5.07
2023-11-24T20:00:09.472Z,4.20
2023-11-24T20:02:38.173Z,4.40
2023-11-24T20:05:07.811Z,3.47
2023-11-24T20:07:37.420Z,3.77
2023-11-24T20:10:07.937Z,3.70
2023-11-24T20:12:36.218Z,3.17
2023-11-24T20:15:04.997Z,4.80
2023-11-24T20:17:34.147Z,3.50
2023-11-24T20:20:02.715Z,4.00
2023-11-24T20:22:31.029Z,3.63
2023-11-24T20:25:00.751Z,3.20
2023-11-24T20:27:29.181Z,4.30
2023-11-24T20:29:58.507Z,3.60
2023-11-24T20:32:26.848Z,3.27
2023-11-24T20:34:55.206Z,3.30
2023-11-24T20:37:23.493Z,3.37
2023-11-24T20:39:52.589Z,3.93
2023-11-24T20:42:22.179Z,3.50
2023-11-24T20:44:50.487Z,3.83
2023-11-24T20:47:18.726Z,4.47
2023-11-24T20:49:47.019Z,3.40
2023-11-24T20:52:15.393Z,3.30
2023-11-24T20:54:45.110Z,3.80
2023-11-24T20:57:13.370Z,4.10
2023-11-24T20:59:43.827Z,4.43
2023-11-24T21:02:12.267Z,4.20
2023-11-24T21:04:40.983Z,4.93
2023-11-24T21:07:09.435Z,3.20
2023-11-24T21:09:37.865Z,4.17
2023-11-24T21:12:06.782Z,4.13
2023-11-24T21:14:35.014Z,3.50
2023-11-24T21:17:05.560Z,3.57
2023-11-24T21:19:35.114Z,3.73
2023-11-24T21:22:03.392Z,3.60
2023-11-24T21:24:31.761Z,3.47
2023-11-24T21:27:01.361Z,3.27
2023-11-24T21:29:30.599Z,3.57
2023-11-24T21:31:58.912Z,3.73
2023-11-24T21:34:29.719Z,3.60
2023-11-24T21:36:58.141Z,3.33
2023-11-24T21:39:26.517Z,3.50
2023-11-24T21:41:54.760Z,3.60
2023-11-24T21:44:24.212Z,3.33
2023-11-24T21:46:52.544Z,3.43
2023-11-24T21:49:20.927Z,2.90
2023-11-24T21:51:50.529Z,2.70
2023-11-24T21:54:18.794Z,2.80
2023-11-24T21:56:50.179Z,3.80
2023-11-24T21:59:18.376Z,3.30
2023-11-24T22:01:46.682Z,3.37
2023-11-24T22:04:15.197Z,2.70
2023-11-24T22:06:43.524Z,3.60
2023-11-24T22:09:13.208Z,3.43
2023-11-24T22:11:41.511Z,3.30
2023-11-24T22:14:09.831Z,3.27
2023-11-24T22:16:38.227Z,2.87
2023-11-24T22:19:07.237Z,3.00
2023-11-24T22:21:35.657Z,3.70
2023-11-24T22:24:07.554Z,2.80
2023-11-24T22:26:39.185Z,2.97
2023-11-24T22:29:11.953Z,3.27
2023-11-24T22:31:40.997Z,2.73
2023-11-24T22:34:10.275Z,3.03
2023-11-24T22:36:38.691Z,2.77
2023-11-24T22:39:08.451Z,2.70
2023-11-24T22:41:39.378Z,3.10
2023-11-24T22:44:09.938Z,2.73
2023-11-24T22:46:38.275Z,2.83
2023-11-24T22:49:06.691Z,3.00
2023-11-24T22:51:35.113Z,3.00
2023-11-24T22:54:04.190Z,3.37
2023-11-24T22:56:33.202Z,2.73
2023-11-24T22:59:02.895Z,3.00
2023-11-24T23:01:31.493Z,3.00
2023-11-24T23:04:02.064Z,3.27
2023-11-24T23:06:30.468Z,2.60
2023-11-24T23:08:59.556Z,3.30
2023-11-24T23:11:30.064Z,2.90
2023-11-24T23:13:58.972Z,3.00
2023-11-24T23:16:30.362Z,3.00
2023-11-24T23:18:59.440Z,3.20
2023-11-24T23:21:27.797Z,4.03
2023-11-24T23:23:56.524Z,4.00
2023-11-24T23:26:26.246Z,3.10
2023-11-24T23:28:54.798Z,2.63
2023-11-24T23:31:26.824Z,3.80
2023-11-24T23:33:58.123Z,3.30
2023-11-24T23:36:26.352Z,3.40
2023-11-24T23:38:54.623Z,2.67
2023-11-24T23:41:23.455Z,2.40
2023-11-24T23:43:51.816Z,2.93
2023-11-24T23:46:20.307Z,3.80
2023-11-24T23:48:48.806Z,3.10
2023-11-24T23:51:18.931Z,2.67
2023-11-24T23:53:47.318Z,3.13
2023-11-24T23:56:15.667Z,3.93
2023-11-24T23:58:45.009Z,3.23
